createdAt,value
2023-11-18T00:00:02.275Z,5.80
2023-11-18T00:02:35.132Z,5.70
2023-11-18T00:05:02.091Z,5.70
2023-11-18T00:07:30.139Z,5.60
2023-11-18T00:09:57.683Z,5.70
2023-11-18T00:12:25.628Z,5.70
2023-11-18T00:14:52.803Z,5.70
2023-11-18T00:17:21.307Z,5.60
2023-11-18T00:19:48.680Z,5.60
2023-11-18T00:22:15.653Z,5.50
2023-11-18T00:24:42.383Z,5.60
2023-11-18T00:27:09.426Z,5.60
2023-11-18T00:29:36.798Z,5.60
2023-11-18T00:32:04.836Z,5.60
2023-11-18T00:34:31.776Z,5.60
2023-11-18T00:36:58.737Z,5.60
2023-11-18T00:39:26.076Z,5.60
2023-11-18T00:41:53.038Z,5.60
2023-11-18T00:44:20.170Z,5.50
2023-11-18T00:46:47.054Z,5.60
2023-11-18T00:49:14.163Z,5.60
2023-11-18T00:51:42.391Z,5.60
2023-11-18T00:54:09.158Z,5.50
2023-11-18T00:56:37.333Z,5.50
2023-11-18T00:59:04.411Z,5.50
2023-11-18T01:01:31.481Z,5.50
2023-11-18T01:04:00.652Z,5.50
2023-11-18T01:06:27.962Z,5.50
2023-11-18T01:08:55.141Z,5.50
2023-11-18T01:11:23.633Z,5.50
2023-11-18T01:13:51.429Z,5.50
2023-11-18T01:16:18.379Z,5.50
2023-11-18T01:18:52.223Z,5.50
2023-11-18T01:21:20.057Z,5.40
2023-11-18T01:23:47.029Z,5.40
2023-11-18T01:26:13.893Z,5.40
2023-11-18T01:28:44.617Z,5.30
2023-11-18T01:31:12.143Z,5.40
2023-11-18T01:33:42.947Z,5.40
2023-11-18T01:36:10.752Z,5.40
2023-11-18T01:38:41.439Z,5.40
2023-11-18T01:41:08.774Z,5.40
2023-11-18T01:43:36.163Z,5.30
2023-11-18T01:46:06.021Z,5.30
2023-11-18T01:48:34.595Z,5.30
2023-11-18T01:51:05.483Z,5.30
2023-11-18T01:53:32.484Z,5.30
2023-11-18T01:56:00.950Z,5.30
2023-11-18T01:58:28.755Z,5.40
2023-11-18T02:00:56.904Z,5.40
2023-11-18T02:03:24.080Z,5.40
2023-11-18T02:05:52.916Z,5.40
2023-11-18T02:08:20.227Z,5.50
2023-11-18T02:10:48.835Z,5.50
2023-11-18T02:13:26.868Z,5.50
2023-11-18T02:15:58.206Z,5.50
2023-11-18T02:18:31.087Z,5.50
2023-11-18T02:21:00.381Z,5.50
2023-11-18T02:23:28.741Z,5.60
2023-11-18T02:25:56.915Z,5.60
2023-11-18T02:28:27.477Z,5.70
2023-11-18T02:31:01.147Z,5.70
2023-11-18T02:33:44.886Z,5.70
2023-11-18T02:36:37.071Z,5.80
2023-11-18T02:39:17.086Z,5.80
2023-11-18T02:41:47.756Z,5.80
2023-11-18T02:44:19.078Z,5.80
2023-11-18T02:46:45.924Z,5.80
2023-11-18T02:49:13.216Z,5.80
2023-11-18T02:51:44.385Z,5.80
2023-11-18T02:54:11.926Z,5.80
2023-11-18T02:56:39.255Z,5.80
2023-11-18T02:59:06.724Z,5.80
2023-11-18T03:01:40.449Z,5.80
2023-11-18T03:04:07.676Z,5.80
2023-11-18T03:06:35.029Z,5.70
2023-11-18T03:09:02.501Z,5.70
2023-11-18T03:11:32.621Z,5.70
2023-11-18T03:13:59.608Z,5.70
2023-11-18T03:16:26.904Z,5.70
2023-11-18T03:18:54.071Z,5.70
2023-11-18T03:21:21.041Z,5.70
2023-11-18T03:23:48.495Z,5.70
2023-11-18T03:26:15.437Z,5.60
2023-11-18T03:28:42.389Z,5.70
2023-11-18T03:31:10.521Z,5.60
2023-11-18T03:33:37.424Z,5.60
2023-11-18T03:36:04.626Z,5.70
2023-11-18T03:38:31.629Z,5.70
2023-11-18T03:40:59.871Z,5.80
2023-11-18T03:43:26.884Z,5.70
2023-11-18T03:45:57.966Z,5.70
2023-11-18T03:48:25.521Z,5.70
2023-11-18T03:50:52.504Z,5.70
2023-11-18T03:53:19.493Z,5.70
2023-11-18T03:55:46.284Z,5.70
2023-11-18T03:58:13.085Z,5.70
2023-11-18T04:00:39.976Z,5.70
2023-11-18T04:03:08.677Z,5.70
2023-11-18T04:05:36.422Z,5.60
2023-11-18T04:08:03.404Z,5.70
2023-11-18T04:10:30.349Z,5.70
2023-11-18T04:12:58.068Z,5.70
2023-11-18T04:15:28.276Z,5.60
2023-11-18T04:17:55.213Z,5.60
2023-11-18T04:20:22.536Z,5.60
2023-11-18T04:22:49.574Z,5.60
2023-11-18T04:25:16.633Z,5.60
2023-11-18T04:27:46.297Z,5.70
2023-11-18T04:30:14.519Z,5.70
2023-11-18T04:32:44.158Z,5.70
2023-11-18T04:35:13.705Z,5.70
2023-11-18T04:37:44.183Z,5.80
2023-11-18T04:40:12.998Z,5.80
2023-11-18T04:42:41.784Z,5.80
2023-11-18T04:45:11.009Z,5.80
2023-11-18T04:47:39.823Z,5.80
2023-11-18T04:50:07.721Z,5.80
2023-11-18T04:52:36.119Z,5.80
2023-11-18T04:55:06.608Z,5.80
2023-11-18T04:57:33.924Z,5.80
2023-11-18T05:00:11.116Z,5.80
2023-11-18T05:02:41.930Z,5.80
2023-11-18T05:05:09.738Z,5.80
2023-11-18T05:07:37.212Z,5.90
2023-11-18T05:10:04.471Z,5.90
2023-11-18T05:12:31.462Z,5.90
2023-11-18T05:14:58.460Z,6.00
2023-11-18T05:17:25.652Z,6.00
2023-11-18T05:19:52.821Z,6.00
2023-11-18T05:22:20.186Z,6.00
2023-11-18T05:24:47.534Z,6.00
2023-11-18T05:27:15.078Z,6.00
2023-11-18T05:29:49.102Z,6.00
2023-11-18T05:32:16.100Z,6.00
2023-11-18T05:34:43.469Z,6.00
2023-11-18T05:37:10.388Z,6.10
2023-11-18T05:39:44.088Z,6.00
2023-11-18T05:42:11.805Z,6.10
2023-11-18T05:44:40.884Z,6.10
2023-11-18T05:47:08.419Z,6.10
2023-11-18T05:49:35.899Z,6.00
2023-11-18T05:52:02.781Z,6.00
2023-11-18T05:54:29.702Z,6.00
2023-11-18T05:56:58.622Z,6.00
2023-11-18T05:59:27.944Z,6.10
2023-11-18T06:01:55.162Z,6.00
2023-11-18T06:04:22.257Z,6.00
2023-11-18T06:06:49.554Z,6.00
2023-11-18T06:09:22.361Z,6.00
2023-11-18T06:11:51.091Z,6.10
2023-11-18T06:14:18.327Z,6.00
2023-11-18T06:16:45.394Z,6.00
2023-11-18T06:19:13.786Z,6.00
2023-11-18T06:21:40.745Z,6.00
2023-11-18T06:24:08.306Z,6.00
2023-11-18T06:26:37.341Z,6.00
2023-11-18T06:29:07.746Z,6.10
2023-11-18T06:31:34.601Z,6.00
2023-11-18T06:34:03.838Z,6.00
2023-11-18T06:36:32.330Z,6.00
2023-11-18T06:39:00.296Z,6.00
2023-11-18T06:41:34.890Z,6.00
2023-11-18T06:44:04.606Z,6.00
2023-11-18T06:46:34.902Z,6.00
2023-11-18T06:49:08.248Z,6.00
2023-11-18T06:51:37.643Z,6.00
2023-11-18T06:54:12.350Z,6.10
2023-11-18T06:56:43.818Z,6.10
2023-11-18T06:59:13.924Z,6.10
2023-11-18T07:01:42.182Z,6.00
2023-11-18T07:04:12.100Z,6.10
2023-11-18T07:06:39.448Z,6.10
2023-11-18T07:09:14.070Z,6.10
2023-11-18T07:11:44.793Z,6.10
2023-11-18T07:14:13.584Z,6.10
2023-11-18T07:16:41.766Z,6.00
2023-11-18T07:19:11.639Z,6.10
2023-11-18T07:21:38.661Z,6.00
2023-11-18T07:24:06.010Z,6.00
2023-11-18T07:26:33.331Z,6.10
2023-11-18T07:29:00.273Z,6.10
2023-11-18T07:31:27.235Z,6.00
2023-11-18T07:33:55.171Z,6.10
2023-11-18T07:36:22.107Z,6.10
2023-11-18T07:38:49.223Z,6.10
2023-11-18T07:41:30.939Z,6.10
2023-11-18T07:44:00.553Z,6.10
2023-11-18T07:46:29.918Z,6.20
2023-11-18T07:48:58.156Z,6.20
2023-11-18T07:51:25.818Z,6.20
2023-11-18T07:53:54.225Z,6.20
2023-11-18T07:56:23.679Z,6.20
2023-11-18T07:58:51.878Z,6.20
2023-11-18T08:01:19.212Z,6.20
2023-11-18T08:03:46.438Z,6.20
2023-11-18T08:06:13.845Z,6.20
2023-11-18T08:08:42.072Z,6.20
2023-11-18T08:11:12.664Z,6.20
2023-11-18T08:13:39.537Z,6.10
2023-11-18T08:16:08.743Z,6.10
2023-11-18T08:18:37.086Z,6.10
2023-11-18T08:21:06.212Z,6.10
2023-11-18T08:23:33.124Z,6.10
2023-11-18T08:26:00.250Z,6.20
2023-11-18T08:28:27.240Z,6.20
2023-11-18T08:30:54.375Z,6.20
2023-11-18T08:33:22.422Z,6.20
2023-11-18T08:35:50.121Z,6.20
2023-11-18T08:38:17.209Z,6.30
2023-11-18T08:40:44.192Z,6.30
2023-11-18T08:43:12.593Z,6.30
2023-11-18T08:45:39.727Z,6.30
2023-11-18T08:48:09.995Z,6.30
2023-11-18T08:50:40.920Z,6.40
2023-11-18T08:53:11.084Z,6.40
2023-11-18T08:55:44.001Z,6.50
2023-11-18T08:58:35.232Z,6.50
2023-11-18T09:01:15.647Z,6.50
2023-11-18T09:03:54.177Z,6.60
2023-11-18T09:06:31.236Z,6.60
2023-11-18T09:08:59.469Z,6.60
2023-11-18T09:11:33.893Z,6.60
2023-11-18T09:14:02.113Z,6.70
2023-11-18T09:16:34.401Z,6.70
2023-11-18T09:19:03.667Z,6.70
2023-11-18T09:21:31.204Z,6.70
2023-11-18T09:23:58.609Z,6.70
2023-11-18T09:26:27.499Z,6.60
2023-11-18T09:28:54.861Z,6.60
2023-11-18T09:31:22.889Z,6.70
2023-11-18T09:33:58.969Z,6.70
2023-11-18T09:36:29.684Z,6.70
2023-11-18T09:38:56.928Z,6.70
2023-11-18T09:41:26.692Z,6.80
2023-11-18T09:43:55.874Z,6.70
2023-11-18T09:46:30.859Z,6.70
2023-11-18T09:49:16.285Z,6.70
2023-11-18T09:51:48.306Z,6.70
2023-11-18T09:54:34.214Z,6.60
2023-11-18T09:57:14.268Z,6.70
2023-11-18T09:59:56.018Z,6.70
2023-11-18T10:02:27.133Z,6.70
2023-11-18T10:04:59.269Z,6.70
2023-11-18T10:07:39.632Z,6.70
2023-11-18T10:10:15.363Z,6.80
2023-11-18T10:12:46.049Z,6.80
2023-11-18T10:15:15.826Z,6.70
2023-11-18T10:17:58.337Z,6.70
2023-11-18T10:20:48.963Z,6.70
2023-11-18T10:23:23.589Z,6.70
2023-11-18T10:25:54.008Z,6.70
2023-11-18T10:28:33.383Z,6.70
2023-11-18T10:31:05.391Z,6.70
2023-11-18T10:33:45.344Z,6.80
2023-11-18T10:36:24.444Z,6.80
2023-11-18T10:38:56.654Z,6.90
2023-11-18T10:41:24.299Z,6.90
2023-11-18T10:44:07.440Z,6.80
2023-11-18T10:46:34.407Z,6.90
2023-11-18T10:49:02.294Z,6.90
2023-11-18T10:51:32.048Z,6.80
2023-11-18T10:54:05.374Z,6.80
2023-11-18T10:56:34.209Z,6.90
2023-11-18T10:59:07.643Z,6.90
2023-11-18T11:01:40.135Z,6.90
2023-11-18T11:04:07.636Z,6.90
2023-11-18T11:06:35.351Z,6.90
2023-11-18T11:09:02.769Z,6.80
2023-11-18T11:11:40.271Z,6.90
2023-11-18T11:14:10.906Z,6.80
2023-11-18T11:16:46.179Z,6.90
2023-11-18T11:19:52.321Z,6.90
2023-11-18T11:22:22.831Z,6.90
2023-11-18T11:25:23.064Z,7.00
2023-11-18T11:28:02.909Z,6.90
2023-11-18T11:30:33.354Z,6.90
2023-11-18T11:33:18.329Z,6.90
2023-11-18T11:35:57.004Z,6.90
2023-11-18T11:38:30.084Z,7.00
2023-11-18T11:41:01.558Z,7.00
2023-11-18T11:43:32.131Z,7.00
2023-11-18T11:45:59.372Z,7.00
2023-11-18T11:48:29.126Z,7.10
2023-11-18T11:51:02.563Z,7.10
2023-11-18T11:53:34.460Z,7.10
2023-11-18T11:56:14.874Z,7.10
2023-11-18T11:58:46.549Z,7.20
2023-11-18T12:01:19.358Z,7.20
2023-11-18T12:03:49.314Z,7.20
2023-11-18T12:06:22.514Z,7.20
2023-11-18T12:08:52.565Z,7.40
2023-11-18T12:11:21.907Z,7.20
2023-11-18T12:14:25.717Z,7.30
2023-11-18T12:17:08.775Z,7.30
2023-11-18T12:19:47.949Z,7.30
2023-11-18T12:22:25.907Z,7.40
2023-11-18T12:24:59.378Z,7.40
2023-11-18T12:27:42.110Z,7.50
2023-11-18T12:30:26.040Z,7.50
2023-11-18T12:33:02.438Z,7.60
2023-11-18T12:35:30.914Z,7.50
2023-11-18T12:38:35.398Z,7.50
2023-11-18T12:41:08.772Z,7.50
2023-11-18T12:43:53.783Z,7.60
2023-11-18T12:46:51.043Z,7.60
2023-11-18T12:49:24.559Z,7.60
2023-11-18T12:51:57.042Z,7.60
2023-11-18T12:54:26.286Z,7.70
2023-11-18T12:56:55.166Z,7.70
2023-11-18T12:59:22.606Z,7.60
2023-11-18T13:01:54.744Z,7.60
2023-11-18T13:04:22.238Z,7.60
2023-11-18T13:06:49.970Z,7.60
2023-11-18T13:09:31.234Z,7.60
2023-11-18T13:12:03.121Z,7.60
2023-11-18T13:14:37.630Z,7.60
2023-11-18T13:17:07.228Z,7.70
2023-11-18T13:19:35.621Z,7.60
2023-11-18T13:22:09.282Z,7.70
2023-11-18T13:24:40.936Z,7.70
2023-11-18T13:27:10.177Z,7.70
2023-11-18T13:29:40.717Z,7.70
2023-11-18T13:32:11.005Z,7.70
2023-11-18T13:34:40.724Z,7.80
2023-11-18T13:37:08.470Z,7.90
2023-11-18T13:39:36.072Z,7.80
2023-11-18T13:42:22.774Z,7.90
2023-11-18T13:44:50.383Z,7.80
2023-11-18T13:47:21.459Z,7.80
2023-11-18T13:49:51.949Z,7.80
2023-11-18T13:52:20.537Z,7.80
2023-11-18T13:54:49.266Z,7.80
2023-11-18T13:57:16.592Z,7.90
2023-11-18T13:59:45.662Z,7.90
2023-11-18T14:02:13.277Z,7.90
2023-11-18T14:04:41.641Z,7.90
2023-11-18T14:07:10.634Z,7.90
2023-11-18T14:09:41.352Z,7.80
2023-11-18T14:12:13.149Z,7.80
2023-11-18T14:14:45.222Z,7.90
2023-11-18T14:17:12.310Z,7.90
2023-11-18T14:19:39.343Z,7.80
2023-11-18T14:22:08.243Z,7.90
2023-11-18T14:24:35.637Z,7.90
2023-11-18T14:27:02.843Z,7.90
2023-11-18T14:29:30.472Z,7.80
2023-11-18T14:31:57.687Z,7.80
2023-11-18T14:34:25.528Z,7.90
2023-11-18T14:36:52.735Z,7.90
2023-11-18T14:39:23.700Z,8.00
2023-11-18T14:41:52.065Z,8.00
2023-11-18T14:44:19.662Z,8.00
2023-11-18T14:46:47.366Z,7.90
2023-11-18T14:49:14.439Z,7.90
2023-11-18T14:51:41.544Z,7.90
2023-11-18T14:54:09.691Z,7.90
2023-11-18T14:56:36.903Z,8.00
2023-11-18T14:59:06.623Z,8.00
2023-11-18T15:01:34.573Z,8.00
2023-11-18T15:04:05.571Z,8.00
2023-11-18T15:06:32.428Z,8.00
2023-11-18T15:08:59.330Z,8.00
2023-11-18T15:11:26.514Z,8.00
2023-11-18T15:13:54.851Z,8.00
2023-11-18T15:16:22.563Z,8.00
2023-11-18T15:18:53.341Z,8.00
2023-11-18T15:21:20.734Z,8.00
2023-11-18T15:23:49.404Z,8.00
2023-11-18T15:26:16.558Z,8.00
2023-11-18T15:28:43.554Z,8.10
2023-11-18T15:31:10.626Z,8.00
2023-11-18T15:33:38.740Z,8.10
2023-11-18T15:36:08.644Z,8.10
2023-11-18T15:38:37.096Z,8.00
2023-11-18T15:41:04.447Z,8.00
2023-11-18T15:43:31.375Z,8.10
2023-11-18T15:45:59.813Z,8.10
2023-11-18T15:48:27.490Z,8.10
2023-11-18T15:50:55.692Z,8.10
2023-11-18T15:53:23.955Z,8.10
2023-11-18T15:55:50.915Z,8.00
2023-11-18T15:58:20.499Z,8.10
2023-11-18T16:00:48.119Z,8.10
2023-11-18T16:03:15.270Z,8.10
2023-11-18T16:05:42.155Z,8.20
2023-11-18T16:08:09.683Z,8.20
2023-11-18T16:10:38.492Z,8.20
2023-11-18T16:13:05.570Z,8.20
2023-11-18T16:15:33.937Z,8.20
2023-11-18T16:18:02.043Z,8.30
2023-11-18T16:20:33.897Z,8.30
2023-11-18T16:23:04.931Z,8.30
2023-11-18T16:25:33.249Z,8.40
2023-11-18T16:28:01.221Z,8.40
2023-11-18T16:30:31.045Z,8.40
2023-11-18T16:32:59.503Z,8.40
2023-11-18T16:35:27.301Z,8.40
2023-11-18T16:37:55.979Z,8.40
2023-11-18T16:40:25.112Z,8.40
2023-11-18T16:42:57.749Z,8.40
2023-11-18T16:45:25.958Z,8.50
2023-11-18T16:47:55.013Z,8.50
2023-11-18T16:50:28.241Z,8.60
2023-11-18T16:52:56.286Z,8.60
2023-11-18T16:55:23.315Z,8.70
2023-11-18T16:57:53.923Z,8.70
2023-11-18T17:00:25.786Z,8.70
2023-11-18T17:02:58.117Z,8.70
2023-11-18T17:05:29.491Z,8.80
2023-11-18T17:07:57.090Z,8.90
2023-11-18T17:10:24.514Z,8.90
2023-11-18T17:12:52.602Z,8.90
2023-11-18T17:15:20.435Z,8.90
2023-11-18T17:17:49.754Z,8.90
2023-11-18T17:20:17.669Z,8.90
2023-11-18T17:22:45.557Z,8.90
2023-11-18T17:25:17.311Z,9.00
2023-11-18T17:27:45.858Z,9.00
2023-11-18T17:30:17.601Z,8.90
2023-11-18T17:32:46.888Z,9.00
2023-11-18T17:35:15.517Z,9.00
2023-11-18T17:37:43.268Z,9.00
2023-11-18T17:40:13.562Z,9.10
2023-11-18T17:42:41.285Z,9.10
2023-11-18T17:45:09.494Z,9.10
2023-11-18T17:47:37.772Z,9.10
2023-11-18T17:50:09.963Z,9.10
2023-11-18T17:52:38.113Z,9.10
2023-11-18T17:55:06.098Z,9.10
2023-11-18T17:57:33.028Z,9.20
2023-11-18T17:59:59.914Z,9.20
2023-11-18T18:02:27.146Z,9.20
2023-11-18T18:04:54.698Z,9.30
2023-11-18T18:07:21.530Z,9.30
2023-11-18T18:09:48.394Z,9.30
2023-11-18T18:12:15.269Z,9.30
2023-11-18T18:14:42.590Z,9.40
2023-11-18T18:17:09.538Z,9.40
2023-11-18T18:19:38.723Z,9.40
2023-11-18T18:22:05.705Z,9.50
2023-11-18T18:24:34.500Z,9.50
2023-11-18T18:27:01.505Z,9.50
2023-11-18T18:29:28.471Z,9.60
2023-11-18T18:31:55.545Z,9.70
2023-11-18T18:34:22.489Z,9.70
2023-11-18T18:36:49.352Z,9.80
2023-11-18T18:39:18.251Z,9.80
2023-11-18T18:41:45.353Z,9.80
2023-11-18T18:44:12.469Z,9.90
2023-11-18T18:46:39.962Z,10.00
2023-11-18T18:49:06.890Z,10.00
2023-11-18T18:51:34.618Z,10.00
2023-11-18T18:54:01.543Z,10.10
2023-11-18T18:56:28.961Z,10.20
2023-11-18T18:58:55.937Z,10.20
2023-11-18T19:01:24.286Z,10.20
2023-11-18T19:03:51.595Z,10.30
2023-11-18T19:06:19.010Z,10.30
2023-11-18T19:08:46.166Z,10.30
2023-11-18T19:11:13.199Z,10.40
2023-11-18T19:13:40.105Z,10.40
2023-11-18T19:16:08.820Z,10.50
2023-11-18T19:18:35.834Z,10.50
2023-11-18T19:21:02.705Z,10.50
2023-11-18T19:23:34.116Z,10.50
2023-11-18T19:26:01.042Z,10.60
2023-11-18T19:28:27.978Z,10.60
2023-11-18T19:30:55.904Z,10.70
2023-11-18T19:33:22.824Z,10.70
2023-11-18T19:35:49.816Z,10.80
2023-11-18T19:38:16.713Z,10.80
2023-11-18T19:40:43.523Z,10.80
2023-11-18T19:43:10.602Z,10.80
2023-11-18T19:45:37.455Z,10.80
2023-11-18T19:48:04.535Z,10.80
2023-11-18T19:50:31.587Z,10.90
2023-11-18T19:52:58.800Z,10.90
2023-11-18T19:55:25.672Z,11.00
2023-11-18T19:57:52.509Z,11.00
2023-11-18T20:00:21.931Z,11.00
2023-11-18T20:02:50.284Z,10.90
2023-11-18T20:05:17.644Z,11.10
2023-11-18T20:07:44.604Z,11.10
2023-11-18T20:10:14.530Z,11.10
2023-11-18T20:12:41.791Z,11.10
2023-11-18T20:15:12.208Z,11.10
2023-11-18T20:17:39.455Z,11.20
2023-11-18T20:20:10.012Z,11.20
2023-11-18T20:22:38.792Z,11.20
2023-11-18T20:25:08.144Z,11.30
2023-11-18T20:27:36.444Z,11.30
2023-11-18T20:30:07.161Z,11.30
2023-11-18T20:32:34.577Z,11.30
2023-11-18T20:35:01.730Z,11.30
2023-11-18T20:37:28.750Z,11.30
2023-11-18T20:39:57.951Z,11.30
2023-11-18T20:42:25.247Z,11.40
2023-11-18T20:44:52.323Z,11.40
2023-11-18T20:47:19.410Z,11.50
2023-11-18T20:49:46.363Z,11.50
2023-11-18T20:52:14.374Z,11.60
2023-11-18T20:54:41.135Z,11.50
2023-11-18T20:57:08.413Z,11.60
2023-11-18T20:59:35.791Z,11.60
2023-11-18T21:02:04.127Z,11.60
2023-11-18T21:04:31.782Z,11.70
2023-11-18T21:06:59.324Z,11.70
2023-11-18T21:09:26.945Z,11.70
2023-11-18T21:12:17.118Z,11.80
2023-11-18T21:14:49.395Z,11.80
2023-11-18T21:17:16.547Z,11.80
2023-11-18T21:19:43.518Z,11.80
2023-11-18T21:22:10.712Z,11.80
2023-11-18T21:24:37.838Z,11.90
2023-11-18T21:27:05.184Z,12.00
2023-11-18T21:29:32.956Z,12.00
2023-11-18T21:31:59.855Z,12.10
2023-11-18T21:34:26.843Z,12.10
2023-11-18T21:36:54.497Z,12.10
2023-11-18T21:39:25.443Z,12.10
2023-11-18T21:41:52.666Z,12.20
2023-11-18T21:44:19.699Z,12.20
2023-11-18T21:46:46.530Z,12.10
2023-11-18T21:49:13.622Z,12.30
2023-11-18T21:51:40.560Z,12.30
2023-11-18T21:54:09.070Z,12.30
2023-11-18T21:56:36.466Z,12.20
2023-11-18T21:59:06.522Z,12.30
2023-11-18T22:01:33.450Z,12.30
2023-11-18T22:04:00.777Z,12.30
2023-11-18T22:06:27.750Z,12.50
2023-11-18T22:08:54.666Z,12.50
2023-11-18T22:11:21.638Z,12.50
2023-11-18T22:13:49.329Z,12.60
2023-11-18T22:16:16.996Z,12.60
2023-11-18T22:18:44.852Z,12.60
2023-11-18T22:21:12.523Z,12.60
2023-11-18T22:23:39.623Z,12.70
2023-11-18T22:26:08.453Z,12.70
2023-11-18T22:28:35.575Z,12.80
2023-11-18T22:31:05.220Z,12.70
2023-11-18T22:33:32.164Z,12.80
2023-11-18T22:35:59.203Z,12.90
2023-11-18T22:38:28.358Z,12.90
2023-11-18T22:40:56.334Z,12.90
2023-11-18T22:43:23.179Z,12.90
2023-11-18T22:45:52.089Z,12.90
2023-11-18T22:48:20.849Z,12.90
2023-11-18T22:50:48.335Z,12.90
2023-11-18T22:53:18.174Z,13.00
2023-11-18T22:55:46.138Z,13.00
2023-11-18T22:58:13.942Z,13.00
2023-11-18T23:00:43.756Z,13.10
2023-11-18T23:03:11.364Z,13.10
2023-11-18T23:05:40.868Z,13.00
2023-11-18T23:08:11.161Z,13.10
2023-11-18T23:10:40.003Z,13.10
2023-11-18T23:13:07.942Z,13.10
2023-11-18T23:15:40.049Z,13.20
2023-11-18T23:18:08.035Z,13.10
2023-11-18T23:20:38.014Z,13.20
2023-11-18T23:23:06.521Z,13.20
2023-11-18T23:25:34.617Z,13.30
2023-11-18T23:28:03.542Z,13.20
2023-11-18T23:30:32.585Z,13.20
2023-11-18T23:32:59.952Z,13.30
2023-11-18T23:35:27.937Z,13.20
2023-11-18T23:37:55.400Z,13.20
2023-11-18T23:40:24.106Z,13.20
2023-11-18T23:42:51.864Z,13.30
2023-11-18T23:45:20.501Z,13.20
2023-11-18T23:47:52.281Z,13.20
2023-11-18T23:50:20.804Z,13.30
2023-11-18T23:52:51.077Z,13.30
2023-11-18T23:55:18.069Z,13.30
2023-11-18T23:57:45.197Z,13.30
